Aérodrome :
LOGIN :

S'inscrire | Disclaimer

   EN    FR    IT 

 










Légende :    VFR   VFR Marginal   IFR   IFR Intensif   IFR Très Intensif
Visi : 
Plafond : 
>= 8 km
>= 3000ft
5 à 8 km
1000 à 3000 ft
1500m à 5 km
500 à 1000 ft
800 à 1500m
200 à 500 ft
< 800m
< 200 ft
Symboles :   Orages  Brouillard  Fortes neiges  Fortes précipitations  Vent > 20 kt
SIGMETs :   Divers  Orages  Givrage  Turbulence  Onde Orograph.  Cendres Volcan.







- Altitude de l'aérodrome : 412 ft
- Code IATA : ORE
- Voir les cartes d'approche


LFOJ - Orleans

DERNIER METAR :
  • 122200Z AUTO 20006KT 9999 FEW004 OVC150 10/09 Q1020

METARs EXPIRÉS :
  • 122130Z AUTO 19007KT 9999 BKN003 BKN008 OVC120 10/10 Q1020
  • 122100Z AUTO 18006KT 9999 BKN004 BKN066 OVC110 10/10 Q1019
  • 122030Z AUTO 20005KT 9000 FEW002 BKN066 OVC110 10/10 Q1019
  • 122000Z AUTO 18006KT 7000 SCT003 OVC130 10/10 Q1019
  • 121930Z AUTO 18006KT 8000 FEW003 SCT140 BKN160 10/09 Q1019

TAF TAF LFOJ
Valide du 12 à 15h jusqu'au 13 à 15h UTC


121400Z 1215/1315 23008KT 9999 SCT015 BKN020
BECMG 1300/1303 5000 BR OVC003
PROB40 1305/1309 1500 BR
PROB30 1306/1308 0400 FG VV///
BECMG 1310/1312 7000 NSW BKN007
BECMG 1313/1315 BKN015
Pas de NOTAMs connus pour ce terrain.
1 SIGMET publié pour la FIR Paris (LFFF) :
 
Givrage fort
LFFF SIGMET 1 VALID 122100/122300 LFPW
LFFF PARIS FIR/UIR SEV ICE OBS AT 2100Z WI N4830 E00415 - N4800 E00445 - N4645 E00245 - N4715 E00215 - N4830 E00415 FL150/210 MOV NE 15KT NC=



MET'MAP, la Météo Aéronautique d'un coup d'oeil ! - Copyright ORBIFLY Décembre 2007 - Disclaimer

ORBIFLY MET'MAP TEAM :

Programmation & Développement : Alexandra Zaïnal
Conception & Développement : Baudouin d'Aumeries
Co-Programmation & Développement : Marc-Olivier Méhu
Soutien technique & logistique : Manuel Goepfert

Contact : metmap@orbifly.com




SOURCES & CREDITS :

   NOAA